createdAt,value
2018-09-06T00:02:04.899Z,99928.48
2018-09-06T00:04:31.823Z,99925.76
2018-09-06T00:06:58.679Z,99936.51
2018-09-06T00:09:25.604Z,99927.52
2018-09-06T00:11:52.587Z,99927.73
2018-09-06T00:14:19.545Z,99926.71
2018-09-06T00:16:46.472Z,99922.05
2018-09-06T00:19:13.456Z,99926.20
2018-09-06T00:21:40.411Z,99919.71
2018-09-06T00:24:07.383Z,99918.39
2018-09-06T00:26:34.328Z,99922.63
2018-09-06T00:29:01.256Z,99921.01
2018-09-06T00:31:28.867Z,99921.40
2018-09-06T00:33:55.813Z,99915.70
2018-09-06T00:36:22.766Z,99917.87
2018-09-06T00:38:49.705Z,99914.83
2018-09-06T00:41:16.683Z,99909.30
2018-09-06T00:43:43.635Z,99909.17
2018-09-06T00:46:10.604Z,99910.58
2018-09-06T00:48:37.563Z,99913.11
2018-09-06T00:51:04.487Z,99922.41
2018-09-06T00:53:31.526Z,99914.72
2018-09-06T00:55:58.459Z,99916.31
2018-09-06T00:58:25.387Z,99910.57
2018-09-06T01:00:52.326Z,99907.76
2018-09-06T01:03:19.312Z,99905.20
2018-09-06T01:05:46.259Z,99908.66
2018-09-06T01:08:13.948Z,99903.18
2018-09-06T01:10:40.803Z,99897.30
2018-09-06T01:13:07.707Z,99895.18
2018-09-06T01:15:34.723Z,99892.35
2018-09-06T01:18:01.687Z,99899.22
2018-09-06T01:20:28.635Z,99901.78
2018-09-06T01:22:55.555Z,99897.70
2018-09-06T01:25:22.539Z,99894.07
2018-09-06T01:27:49.499Z,99896.60
2018-09-06T01:30:16.455Z,99889.74
2018-09-06T01:32:43.448Z,99896.63
2018-09-06T01:35:10.362Z,99886.91
2018-09-06T01:37:37.331Z,99889.33
2018-09-06T01:40:04.352Z,99888.41
2018-09-06T01:42:31.357Z,99894.05
2018-09-06T01:44:58.255Z,99885.38
2018-09-06T01:47:25.454Z,99887.69
2018-09-06T01:49:52.420Z,99889.22
2018-09-06T01:52:19.376Z,99884.91
2018-09-06T01:54:46.335Z,99890.31
2018-09-06T01:57:13.290Z,99891.27
2018-09-06T01:59:40.639Z,99881.00
2018-09-06T02:02:08.110Z,99877.88
2018-09-06T02:04:35.500Z,99877.07
2018-09-06T02:07:02.387Z,99879.86
2018-09-06T02:09:29.317Z,99874.83
2018-09-06T02:11:56.271Z,99875.44
2018-09-06T02:14:23.210Z,99882.26
2018-09-06T02:16:50.179Z,99876.16
2018-09-06T02:19:17.143Z,99876.93
2018-09-06T02:21:44.121Z,99871.36
2018-09-06T02:24:10.976Z,99880.61
2018-09-06T02:26:37.915Z,99875.06
2018-09-06T02:29:04.893Z,99880.47
2018-09-06T02:31:31.835Z,99875.20
2018-09-06T02:33:58.847Z,99879.55
2018-09-06T02:36:25.736Z,99875.10
2018-09-06T02:38:52.676Z,99870.26
2018-09-06T02:41:19.646Z,99866.45
2018-09-06T02:43:46.620Z,99873.33
2018-09-06T02:46:13.573Z,99866.79
2018-09-06T02:48:41.631Z,99860.38
2018-09-06T02:51:16.172Z,99865.19
2018-09-06T02:53:43.449Z,99864.64
2018-09-06T02:56:11.107Z,99865.44
2018-09-06T02:58:38.188Z,99866.06
2018-09-06T03:01:05.348Z,99868.41
2018-09-06T03:03:33.359Z,99864.27
2018-09-06T03:06:00.407Z,99859.52
2018-09-06T03:08:27.340Z,99855.09
2018-09-06T03:10:57.480Z,99852.98
2018-09-06T03:13:24.460Z,99849.17
2018-09-06T03:15:51.420Z,99854.27
2018-09-06T03:18:18.351Z,99861.20
2018-09-06T03:20:45.300Z,99857.30
2018-09-06T03:23:12.275Z,99854.67
2018-09-06T03:25:40.027Z,99853.58
2018-09-06T03:28:06.997Z,99848.67
2018-09-06T03:30:33.952Z,99850.54
2018-09-06T03:33:00.953Z,99848.81
2018-09-06T03:35:27.872Z,99852.43
2018-09-06T03:37:54.835Z,99847.80
2018-09-06T03:40:21.807Z,99847.66
2018-09-06T03:42:48.708Z,99840.18
2018-09-06T03:45:15.716Z,99845.94
2018-09-06T03:47:42.686Z,99843.41
2018-09-06T03:50:09.660Z,99837.91
2018-09-06T03:52:36.651Z,99836.28
2018-09-06T03:55:03.647Z,99834.62
2018-09-06T03:57:30.592Z,99834.72
2018-09-06T03:59:57.547Z,99837.91
2018-09-06T04:02:24.528Z,99833.30
2018-09-06T04:04:51.431Z,99835.14
2018-09-06T04:07:19.703Z,99835.92
2018-09-06T04:09:46.631Z,99833.34
2018-09-06T04:12:15.530Z,99834.85
2018-09-06T04:14:42.452Z,99834.89
2018-09-06T04:17:10.036Z,99840.93
2018-09-06T04:19:37.005Z,99832.96
2018-09-06T04:22:03.966Z,99835.99
2018-09-06T04:24:31.528Z,99840.55
2018-09-06T04:26:58.487Z,99833.25
2018-09-06T04:29:25.460Z,99836.61
2018-09-06T04:31:52.416Z,99841.94
2018-09-06T04:34:19.331Z,99838.70
2018-09-06T04:36:46.271Z,99838.72
2018-09-06T04:39:13.267Z,99835.06
2018-09-06T04:41:40.247Z,99845.67
2018-09-06T04:44:07.226Z,99841.04
2018-09-06T04:46:34.435Z,99840.23
2018-09-06T04:49:01.700Z,99842.25
2018-09-06T04:51:28.643Z,99845.66
2018-09-06T04:53:55.607Z,99845.56
2018-09-06T04:56:24.632Z,99845.16
2018-09-06T04:58:51.592Z,99848.14
2018-09-06T05:01:18.547Z,99846.61
2018-09-06T05:03:45.543Z,99847.98
2018-09-06T05:06:12.528Z,99843.23
2018-09-06T05:08:39.560Z,99847.22
2018-09-06T05:11:06.605Z,99852.00
2018-09-06T05:13:33.531Z,99851.27
2018-09-06T05:16:00.500Z,99849.20
2018-09-06T05:18:27.427Z,99847.48
2018-09-06T05:20:54.398Z,99847.02
2018-09-06T05:23:21.368Z,99848.83
2018-09-06T05:25:48.291Z,99842.84
2018-09-06T05:28:15.248Z,99841.37
2018-09-06T05:30:42.304Z,99839.52
2018-09-06T05:33:09.223Z,99838.05
2018-09-06T05:35:36.148Z,99838.46
2018-09-06T05:38:03.063Z,99848.87
2018-09-06T05:40:30.096Z,99843.66
2018-09-06T05:42:57.020Z,99849.93
2018-09-06T05:45:23.990Z,99848.81
2018-09-06T05:47:58.495Z,99849.92
2018-09-06T05:50:26.585Z,99851.30
2018-09-06T05:52:53.565Z,99849.84
2018-09-06T05:55:20.933Z,99859.95
2018-09-06T05:57:47.884Z,99851.84
2018-09-06T06:00:20.652Z,99853.67
2018-09-06T06:02:48.434Z,99847.38
2018-09-06T06:05:15.485Z,99845.57
2018-09-06T06:07:53.979Z,99843.45
2018-09-06T06:10:20.923Z,99848.09
2018-09-06T06:12:47.859Z,99842.84
2018-09-06T06:15:14.771Z,99839.06
2018-09-06T06:17:41.823Z,99837.16
2018-09-06T06:20:08.731Z,99830.66
2018-09-06T06:22:35.687Z,99837.91
2018-09-06T06:25:02.703Z,99840.95
2018-09-06T06:27:29.711Z,99844.61
2018-09-06T06:29:56.650Z,99847.69
2018-09-06T06:32:24.110Z,99845.42
2018-09-06T06:34:50.985Z,99847.34
2018-09-06T06:37:17.956Z,99844.23
2018-09-06T06:39:51.128Z,99844.05
2018-09-06T06:42:24.248Z,99848.16
2018-09-06T06:44:57.259Z,99838.66
2018-09-06T06:47:30.147Z,99840.08
2018-09-06T06:50:03.256Z,99840.65
2018-09-06T06:52:36.496Z,99848.13
2018-09-06T06:55:09.839Z,99841.36
2018-09-06T06:57:42.995Z,99851.57
2018-09-06T07:00:16.971Z,99854.00
2018-09-06T07:02:50.587Z,99848.61
2018-09-06T07:05:23.615Z,99849.67
2018-09-06T07:07:56.713Z,99849.72
2018-09-06T07:10:29.623Z,99852.22
2018-09-06T07:13:02.970Z,99854.22
2018-09-06T07:15:36.211Z,99848.33
2018-09-06T07:18:09.323Z,99850.22
2018-09-06T07:20:42.208Z,99856.64
2018-09-06T07:23:15.451Z,99849.66
2018-09-06T07:25:48.540Z,99852.84
2018-09-06T07:28:21.602Z,99852.74
2018-09-06T07:30:54.923Z,99843.07
2018-09-06T07:33:27.940Z,99849.16
2018-09-06T07:36:00.927Z,99854.78
2018-09-06T07:38:34.030Z,99856.20
2018-09-06T07:41:07.139Z,99852.26
2018-09-06T07:43:40.173Z,99852.77
2018-09-06T07:46:13.366Z,99844.52
2018-09-06T07:48:46.571Z,99847.98
2018-09-06T07:51:19.663Z,99841.43
2018-09-06T07:53:53.677Z,99847.36
2018-09-06T07:56:26.794Z,99847.28
2018-09-06T07:58:59.867Z,99848.09
2018-09-06T08:01:32.983Z,99842.70
2018-09-06T08:04:06.111Z,99847.11
2018-09-06T08:06:39.279Z,99845.83
2018-09-06T08:09:12.563Z,99842.42
2018-09-06T08:11:45.607Z,99840.40
2018-09-06T08:14:18.795Z,99847.20
2018-09-06T08:16:51.888Z,99843.86
2018-09-06T08:19:24.898Z,99841.89
2018-09-06T08:21:57.939Z,99843.61
2018-09-06T08:24:30.917Z,99841.80
2018-09-06T08:27:03.987Z,99840.11
2018-09-06T08:29:37.104Z,99847.18
2018-09-06T08:32:10.159Z,99847.95
2018-09-06T08:34:43.399Z,99847.80
2018-09-06T08:37:16.528Z,99843.43
2018-09-06T08:39:49.719Z,99844.12
2018-09-06T08:42:22.830Z,99848.80
2018-09-06T08:44:55.935Z,99842.69
2018-09-06T08:47:28.971Z,99838.95
2018-09-06T08:50:02.112Z,99840.86
2018-09-06T08:52:35.412Z,99839.55
2018-09-06T08:55:08.323Z,99838.06
2018-09-06T08:57:41.344Z,99836.91
2018-09-06T09:00:14.539Z,99831.58
2018-09-06T09:02:47.762Z,99826.61
2018-09-06T09:05:20.796Z,99825.47
2018-09-06T09:07:53.931Z,99827.73
2018-09-06T09:10:27.085Z,99824.08
2018-09-06T09:13:00.221Z,99825.58
2018-09-06T09:15:33.306Z,99816.79
2018-09-06T09:18:06.367Z,99811.47
2018-09-06T09:20:39.270Z,99807.91
2018-09-06T09:23:13.152Z,99804.04
2018-09-06T09:25:46.654Z,99795.63
2018-09-06T09:28:19.552Z,99794.14
2018-09-06T09:30:52.670Z,99797.94
2018-09-06T09:33:25.989Z,99799.52
2018-09-06T09:35:59.036Z,99796.45
2018-09-06T09:38:32.051Z,99795.15
2018-09-06T09:41:05.259Z,99794.27
2018-09-06T09:43:38.414Z,99788.64
2018-09-06T09:48:44.147Z,99781.14
2018-09-06T09:51:17.236Z,99774.51
2018-09-06T09:53:50.295Z,99775.02
2018-09-06T09:56:23.395Z,99778.72
2018-09-06T09:58:56.534Z,99772.09
2018-09-06T10:01:35.324Z,99769.16
2018-09-06T10:04:14.189Z,99764.00
2018-09-06T10:06:53.135Z,99761.92
2018-09-06T10:09:27.103Z,99764.63
2018-09-06T10:12:00.315Z,99762.20
2018-09-06T10:14:33.539Z,99760.53
2018-09-06T10:17:06.483Z,99764.26
2018-09-06T10:19:39.647Z,99748.42
2018-09-06T10:22:12.695Z,99761.66
2018-09-06T10:24:45.768Z,99755.52
2018-09-06T10:27:18.845Z,99742.97
2018-09-06T10:29:51.968Z,99746.98
2018-09-06T10:32:25.130Z,99744.92
2018-09-06T10:34:58.406Z,99747.11
2018-09-06T10:37:31.663Z,99746.38
2018-09-06T10:40:04.912Z,99747.56
2018-09-06T10:42:31.823Z,99743.86
2018-09-06T10:44:58.744Z,99749.96
2018-09-06T10:47:25.744Z,99742.76
2018-09-06T10:49:52.726Z,99739.85
2018-09-06T10:52:19.664Z,99736.72
2018-09-06T10:54:46.629Z,99737.05
2018-09-06T10:57:13.624Z,99731.90
2018-09-06T10:59:40.628Z,99733.86
2018-09-06T11:02:07.614Z,99728.47
2018-09-06T11:04:34.536Z,99732.30
2018-09-06T11:07:01.470Z,99726.41
2018-09-06T11:09:28.440Z,99727.73
2018-09-06T11:11:55.407Z,99722.30
2018-09-06T11:14:22.379Z,99719.63
2018-09-06T11:16:49.330Z,99718.79
2018-09-06T11:19:16.349Z,99706.81
2018-09-06T11:21:45.515Z,99710.92
2018-09-06T11:24:14.306Z,99710.66
2018-09-06T11:26:41.743Z,99700.09
2018-09-06T11:29:08.705Z,99698.08
2018-09-06T11:31:35.620Z,99695.94
2018-09-06T11:34:02.555Z,99690.59
2018-09-06T11:36:29.488Z,99681.53
2018-09-06T11:38:56.431Z,99679.23
2018-09-06T11:41:23.415Z,99678.77
2018-09-06T11:43:50.424Z,99677.78
2018-09-06T11:46:17.491Z,99673.85
2018-09-06T11:48:44.397Z,99673.94
2018-09-06T11:51:11.337Z,99671.62
2018-09-06T11:53:38.315Z,99666.73
2018-09-06T11:56:05.447Z,99677.95
2018-09-06T11:58:32.434Z,99668.74
2018-09-06T12:00:59.384Z,99660.72
2018-09-06T12:03:26.335Z,99656.14
2018-09-06T12:05:53.412Z,99661.30
2018-09-06T12:08:20.406Z,99656.03
2018-09-06T12:10:47.407Z,99652.03
2018-09-06T12:13:15.428Z,99647.66
2018-09-06T12:15:42.360Z,99643.09
2018-09-06T12:18:09.307Z,99634.12
2018-09-06T12:20:36.264Z,99630.43
2018-09-06T12:23:04.307Z,99630.16
2018-09-06T12:25:31.412Z,99623.68
2018-09-06T12:27:58.290Z,99612.95
2018-09-06T12:30:25.211Z,99612.28
2018-09-06T12:32:56.846Z,99612.32
2018-09-06T12:35:30.087Z,99616.72
2018-09-06T12:37:57.059Z,99614.44
2018-09-06T12:40:25.036Z,99606.41
2018-09-06T12:42:51.992Z,99612.68
2018-09-06T12:45:18.928Z,99619.75
2018-09-06T12:47:45.899Z,99612.94
2018-09-06T12:50:12.883Z,99612.45
2018-09-06T12:52:39.800Z,99611.69
2018-09-06T12:55:06.816Z,99618.55
2018-09-06T12:57:34.032Z,99614.11
2018-09-06T13:00:01.003Z,99616.76
2018-09-06T13:02:27.927Z,99612.20
2018-09-06T13:04:54.911Z,99617.69
2018-09-06T13:07:21.869Z,99610.56
2018-09-06T13:09:48.831Z,99617.09
2018-09-06T13:12:15.791Z,99619.52
2018-09-06T13:14:42.711Z,99611.47
2018-09-06T13:17:09.695Z,99600.92
2018-09-06T13:19:36.715Z,99600.46
2018-09-06T13:22:04.747Z,99609.56
2018-09-06T13:24:32.139Z,99605.14
2018-09-06T13:26:59.068Z,99604.30
2018-09-06T13:29:26.054Z,99604.34
2018-09-06T13:31:52.958Z,99611.03
2018-09-06T13:34:19.935Z,99626.66
2018-09-06T13:36:46.871Z,99625.45
2018-09-06T13:39:14.350Z,99617.98
2018-09-06T13:41:41.360Z,99629.32
2018-09-06T13:44:08.335Z,99636.71
2018-09-06T13:46:35.423Z,99648.77
2018-09-06T13:49:02.382Z,99657.11
2018-09-06T13:51:29.354Z,99640.77
2018-09-06T13:53:56.294Z,99625.82
2018-09-06T13:56:23.302Z,99620.77
2018-09-06T13:58:50.213Z,99613.50
2018-09-06T14:01:17.084Z,99591.92
2018-09-06T14:03:44.047Z,99597.71
2018-09-06T14:06:12.356Z,99591.57
2018-09-06T14:08:39.384Z,99599.70
2018-09-06T14:11:06.399Z,99603.91
2018-09-06T14:13:33.300Z,99622.38
2018-09-06T14:16:00.280Z,99625.02
2018-09-06T14:18:27.239Z,99610.13
2018-09-06T14:20:54.232Z,99609.82
2018-09-06T14:23:21.202Z,99610.53
2018-09-06T14:25:48.110Z,99603.69
2018-09-06T14:28:15.108Z,99596.22
2018-09-06T14:30:42.287Z,99601.68
2018-09-06T14:33:09.151Z,99603.63
2018-09-06T14:35:36.102Z,99596.92
2018-09-06T14:38:03.194Z,99608.92
2018-09-06T14:40:31.209Z,99627.32
2018-09-06T14:42:58.245Z,99615.45
2018-09-06T14:45:25.183Z,99612.05
2018-09-06T14:47:52.114Z,99613.19
2018-09-06T14:50:20.008Z,99613.01
2018-09-06T14:52:47.127Z,99618.61
2018-09-06T14:55:14.994Z,99622.39
2018-09-06T14:57:42.317Z,99616.24
2018-09-06T15:00:09.327Z,99605.45
2018-09-06T15:02:36.227Z,99617.84
2018-09-06T15:05:04.271Z,99639.63
2018-09-06T15:07:31.140Z,99636.36
2018-09-06T15:09:58.949Z,99650.90
2018-09-06T15:12:26.240Z,99652.26
2018-09-06T15:14:53.414Z,99640.98
2018-09-06T15:17:22.283Z,99643.72
2018-09-06T15:19:50.556Z,99640.53
2018-09-06T15:22:18.507Z,99643.00
2018-09-06T15:24:45.415Z,99640.48
2018-09-06T15:27:12.430Z,99642.91
2018-09-06T15:29:39.440Z,99646.98
2018-09-06T15:32:06.489Z,99635.73
2018-09-06T15:34:41.006Z,99642.19
2018-09-06T15:37:14.009Z,99643.83
2018-09-06T15:39:51.975Z,99644.79
2018-09-06T15:42:22.047Z,99644.18
2018-09-06T15:44:49.118Z,99639.03
2018-09-06T15:47:19.694Z,99638.61
2018-09-06T15:49:47.560Z,99636.13
2018-09-06T15:52:16.567Z,99643.91
2018-09-06T15:54:47.541Z,99644.65
2018-09-06T15:57:14.468Z,99652.17
2018-09-06T15:59:41.396Z,99645.69
2018-09-06T16:02:11.544Z,99647.97
2018-09-06T16:04:38.548Z,99644.84
2018-09-06T16:07:05.524Z,99644.25
2018-09-06T16:09:34.621Z,99645.20
2018-09-06T16:12:07.845Z,99638.59
2018-09-06T16:14:35.903Z,99641.75
2018-09-06T16:17:03.113Z,99645.91
2018-09-06T16:19:30.170Z,99641.84
2018-09-06T16:21:57.360Z,99643.99
2018-09-06T16:24:26.339Z,99651.37
2018-09-06T16:26:53.356Z,99653.21
2018-09-06T16:29:20.441Z,99655.96
2018-09-06T16:31:47.357Z,99660.69
2018-09-06T16:34:14.331Z,99659.94
2018-09-06T16:36:42.067Z,99663.91
2018-09-06T16:39:10.244Z,99659.40
2018-09-06T16:41:37.357Z,99664.23
2018-09-06T16:44:04.239Z,99663.48
2018-09-06T16:46:31.280Z,99678.64
2018-09-06T16:48:58.226Z,99684.69
2018-09-06T16:51:25.168Z,99676.68
2018-09-06T16:53:52.122Z,99673.52
2018-09-06T16:56:20.083Z,99676.91
2018-09-06T16:58:47.064Z,99682.19
2018-09-06T17:01:14.068Z,99675.49
2018-09-06T17:03:42.589Z,99677.30
2018-09-06T17:06:10.045Z,99679.39
2018-09-06T17:08:37.042Z,99681.44
2018-09-06T17:11:04.106Z,99680.72
2018-09-06T17:13:38.815Z,99682.69
2018-09-06T17:16:06.892Z,99682.47
2018-09-06T17:18:35.275Z,99688.05
2018-09-06T17:21:02.246Z,99684.38
2018-09-06T17:23:29.295Z,99689.44
2018-09-06T17:25:56.294Z,99685.41
2018-09-06T17:28:23.288Z,99698.16
2018-09-06T17:30:50.239Z,99703.33
2018-09-06T17:33:17.142Z,99707.00
2018-09-06T17:35:44.112Z,99703.00
2018-09-06T17:38:15.576Z,99713.86
2018-09-06T17:40:44.207Z,99712.70
2018-09-06T17:43:11.112Z,99719.08
2018-09-06T17:45:38.113Z,99729.20
2018-09-06T17:48:05.144Z,99723.55
2018-09-06T17:50:32.333Z,99732.58
2018-09-06T17:52:59.308Z,99726.48
2018-09-06T17:55:26.247Z,99723.34
2018-09-06T17:57:55.153Z,99721.37
2018-09-06T18:00:22.067Z,99722.47
2018-09-06T18:02:49.053Z,99727.22
2018-09-06T18:05:16.010Z,99728.40
2018-09-06T18:07:42.954Z,99733.81
2018-09-06T18:10:09.925Z,99744.89
2018-09-06T18:12:37.259Z,99750.37
2018-09-06T18:15:12.868Z,99761.92
2018-09-06T18:17:42.930Z,99769.80
2018-09-06T18:20:09.879Z,99771.30
2018-09-06T18:22:36.876Z,99773.94
2018-09-06T18:25:03.943Z,99777.78
2018-09-06T18:27:30.908Z,99787.23
2018-09-06T18:29:57.887Z,99780.70
2018-09-06T18:32:24.835Z,99783.26
2018-09-06T18:34:51.763Z,99778.73
2018-09-06T18:37:18.756Z,99780.57
2018-09-06T18:39:46.730Z,99781.02
2018-09-06T18:42:13.658Z,99794.41
2018-09-06T18:44:40.643Z,99800.48
2018-09-06T18:47:07.601Z,99792.89
2018-09-06T18:49:34.601Z,99805.23
2018-09-06T18:52:01.481Z,99804.08
2018-09-06T18:54:29.101Z,99808.78
2018-09-06T18:56:58.113Z,99814.03
2018-09-06T18:59:25.154Z,99821.47
2018-09-06T19:01:52.127Z,99829.12
2018-09-06T19:04:19.076Z,99829.62
2018-09-06T19:06:46.011Z,99836.98
2018-09-06T19:09:13.125Z,99834.09
2018-09-06T19:11:40.027Z,99833.16
2018-09-06T19:14:07.008Z,99829.93
2018-09-06T19:16:34.210Z,99823.64
2018-09-06T19:19:01.127Z,99822.74
2018-09-06T19:21:28.771Z,99818.07
2018-09-06T19:23:55.776Z,99818.70
2018-09-06T19:26:22.828Z,99816.81
2018-09-06T19:28:49.768Z,99809.04
2018-09-06T19:31:16.731Z,99810.20
2018-09-06T19:33:43.692Z,99810.72
2018-09-06T19:36:10.655Z,99803.33
2018-09-06T19:38:38.035Z,99805.17
2018-09-06T19:41:06.363Z,99798.13
2018-09-06T19:43:33.352Z,99797.39
2018-09-06T19:46:00.315Z,99801.23
2018-09-06T19:48:28.151Z,99803.92
2018-09-06T19:50:55.159Z,99799.17
2018-09-06T19:53:25.267Z,99805.34
2018-09-06T19:55:53.284Z,99806.55
2018-09-06T19:58:20.274Z,99804.25
2018-09-06T20:00:48.196Z,99795.94
2018-09-06T20:03:18.139Z,99803.63
2018-09-06T20:05:45.114Z,99803.66
2018-09-06T20:08:12.118Z,99802.20
2018-09-06T20:10:39.011Z,99801.17
2018-09-06T20:13:05.955Z,99802.09
2018-09-06T20:15:33.552Z,99800.09
2018-09-06T20:18:00.507Z,99803.86
2018-09-06T20:20:27.387Z,99800.27
2018-09-06T20:22:54.391Z,99798.80
2018-09-06T20:25:21.367Z,99803.81
2018-09-06T20:27:48.360Z,99797.72
2018-09-06T20:30:16.386Z,99800.72
2018-09-06T20:32:43.339Z,99794.27
2018-09-06T20:35:11.324Z,99794.41
2018-09-06T20:37:44.431Z,99794.91
2018-09-06T20:40:11.390Z,99788.94
2018-09-06T20:42:38.352Z,99800.59
2018-09-06T20:45:05.364Z,99808.27
2018-09-06T20:47:32.355Z,99808.23
2018-09-06T20:49:59.335Z,99804.89
2018-09-06T20:52:27.203Z,99813.75
2018-09-06T20:54:54.123Z,99820.55
2018-09-06T20:57:21.129Z,99832.51
2018-09-06T20:59:48.089Z,99848.33
2018-09-06T21:02:22.378Z,99851.72
2018-09-06T21:04:52.038Z,99854.77
2018-09-06T21:07:18.943Z,99863.00
2018-09-06T21:09:45.952Z,99860.77
2018-09-06T21:12:13.075Z,99856.72
2018-09-06T21:14:40.095Z,99853.98
2018-09-06T21:17:07.179Z,99846.17
2018-09-06T21:19:34.732Z,99843.23
2018-09-06T21:22:02.551Z,99846.89
2018-09-06T21:24:29.542Z,99842.11
2018-09-06T21:26:57.195Z,99840.77
2018-09-06T21:29:24.666Z,99841.72
2018-09-06T21:31:51.628Z,99842.75
2018-09-06T21:34:18.583Z,99850.05
2018-09-06T21:36:45.594Z,99854.09
2018-09-06T21:39:12.883Z,99855.10
2018-09-06T21:41:40.967Z,99853.39
2018-09-06T21:44:08.231Z,99857.34
2018-09-06T21:46:38.462Z,99855.92
2018-09-06T21:49:05.834Z,99854.20
2018-09-06T21:51:34.759Z,99856.63
2018-09-06T21:54:06.330Z,99854.52
2018-09-06T21:56:36.260Z,99849.14
2018-09-06T21:59:09.273Z,99850.25
2018-09-06T22:01:36.210Z,99844.37
2018-09-06T22:04:07.787Z,99839.81
2018-09-06T22:06:35.427Z,99838.21
2018-09-06T22:09:04.028Z,99833.23
2018-09-06T22:11:30.984Z,99832.30
2018-09-06T22:14:01.235Z,99832.33
2018-09-06T22:16:31.579Z,99833.83
2018-09-06T22:18:58.527Z,99837.38
2018-09-06T22:21:25.448Z,99836.95
2018-09-06T22:23:53.288Z,99838.69
2018-09-06T22:26:20.315Z,99836.96
2018-09-06T22:28:52.807Z,99845.89
2018-09-06T22:31:23.723Z,99850.56
2018-09-06T22:33:52.263Z,99849.86
2018-09-06T22:36:24.227Z,99847.72
2018-09-06T22:38:51.204Z,99851.77
2018-09-06T22:41:18.099Z,99846.00
2018-09-06T22:43:45.002Z,99844.06
2018-09-06T22:46:11.963Z,99851.27
2018-09-06T22:48:42.542Z,99854.39
2018-09-06T22:51:10.298Z,99843.69
2018-09-06T22:53:37.275Z,99844.89
2018-09-06T22:56:04.215Z,99833.75
2018-09-06T22:58:31.211Z,99826.14
2018-09-06T23:00:58.253Z,99829.98
2018-09-06T23:03:31.011Z,99833.75
2018-09-06T23:05:57.959Z,99832.13
2018-09-06T23:08:24.923Z,99831.63
2018-09-06T23:10:52.902Z,99840.63
2018-09-06T23:13:20.787Z,99833.85
2018-09-06T23:15:47.744Z,99843.77
2018-09-06T23:18:14.702Z,99847.81
2018-09-06T23:20:41.677Z,99852.08
2018-09-06T23:23:08.870Z,99851.58
2018-09-06T23:25:35.812Z,99847.63
2018-09-06T23:28:06.235Z,99843.92
2018-09-06T23:30:39.317Z,99844.02
2018-09-06T23:33:07.015Z,99838.30
2018-09-06T23:35:33.968Z,99842.97
2018-09-06T23:38:00.991Z,99847.00
2018-09-06T23:40:29.541Z,99844.58
2018-09-06T23:42:56.492Z,99849.64
2018-09-06T23:45:24.347Z,99843.16
2018-09-06T23:47:51.319Z,99841.86
2018-09-06T23:50:18.283Z,99846.78
2018-09-06T23:52:45.231Z,99851.88
2018-09-06T23:55:12.216Z,99854.00
2018-09-06T23:57:39.125Z,99861.49
